createdAt,value
2019-06-07T00:00:51.065Z,5.60
2019-06-07T00:03:28.949Z,9.50
2019-06-07T00:05:53.109Z,6.53
2019-06-07T00:08:28.052Z,7.47
2019-06-07T00:10:53.401Z,6.40
2019-06-07T00:13:22.751Z,9.13
2019-06-07T00:15:52.054Z,6.60
2019-06-07T00:18:26.042Z,6.57
2019-06-07T00:20:52.341Z,7.47
2019-06-07T00:23:23.104Z,10.00
2019-06-07T00:25:52.673Z,8.57
2019-06-07T00:28:22.212Z,9.30
2019-06-07T00:30:52.752Z,7.53
2019-06-07T00:33:24.741Z,6.87
2019-06-07T00:35:54.431Z,7.53
2019-06-07T00:38:23.708Z,11.83
2019-06-07T00:40:53.235Z,8.27
2019-06-07T00:43:27.841Z,7.80
2019-06-07T00:45:53.738Z,7.97
2019-06-07T00:48:31.330Z,6.67
2019-06-07T00:50:54.242Z,7.23
2019-06-07T00:53:31.736Z,7.60
2019-06-07T00:55:54.739Z,8.47
2019-06-07T00:58:27.517Z,8.37
2019-06-07T01:00:55.084Z,7.53
2019-06-07T01:03:25.907Z,7.27
2019-06-07T01:05:55.343Z,9.30
2019-06-07T01:08:29.731Z,7.20
2019-06-07T01:10:55.603Z,7.77
2019-06-07T01:13:26.753Z,7.80
2019-06-07T01:15:56.101Z,7.93
2019-06-07T01:18:37.463Z,9.17
2019-06-07T01:20:56.587Z,6.77
2019-06-07T01:23:59.852Z,8.00
2019-06-07T01:25:56.856Z,6.90
2019-06-07T01:28:27.104Z,8.23
2019-06-07T01:30:57.142Z,7.37
2019-06-07T01:33:46.421Z,8.00
2019-06-07T01:35:57.663Z,7.93
2019-06-07T01:38:29.801Z,7.63
2019-06-07T01:40:58.193Z,10.23
2019-06-07T01:43:30.556Z,7.00
2019-06-07T01:45:58.458Z,7.80
2019-06-07T01:48:46.180Z,7.23
2019-06-07T01:50:59.721Z,9.67
2019-06-07T01:53:31.404Z,7.87
2019-06-07T01:55:59.984Z,10.03
2019-06-07T01:58:29.297Z,8.90
2019-06-07T02:00:58.578Z,8.50
2019-06-07T02:03:32.180Z,8.50
2019-06-07T02:05:59.311Z,7.50
2019-06-07T02:08:34.103Z,8.70
2019-06-07T02:10:59.831Z,8.30
2019-06-07T02:13:30.738Z,8.90
2019-06-07T02:16:00.430Z,10.60
2019-06-07T02:18:34.676Z,8.40
2019-06-07T02:21:00.924Z,7.00
2019-06-07T02:23:33.066Z,9.70
2019-06-07T02:26:01.179Z,8.20
2019-06-07T02:28:44.720Z,10.47
2019-06-07T02:31:01.453Z,9.73
2019-06-07T02:33:35.142Z,8.40
2019-06-07T02:36:01.959Z,8.80
2019-06-07T02:38:37.049Z,9.10
2019-06-07T02:41:02.450Z,7.87
2019-06-07T02:43:35.095Z,11.83
2019-06-07T02:46:23.849Z,9.13
2019-06-07T02:48:39.432Z,12.30
2019-06-07T02:51:04.985Z,8.60
2019-06-07T02:53:40.037Z,10.33
2019-06-07T02:56:37.867Z,8.93
2019-06-07T02:58:41.561Z,8.30
2019-06-07T03:01:09.429Z,8.63
2019-06-07T03:03:40.184Z,8.57
2019-06-07T03:06:11.374Z,9.30
2019-06-07T03:08:42.098Z,11.00
2019-06-07T03:11:13.718Z,7.60
2019-06-07T03:13:47.620Z,9.77
2019-06-07T03:16:28.668Z,9.50
2019-06-07T03:19:16.366Z,11.87
2019-06-07T03:21:45.710Z,9.20
2019-06-07T03:24:14.998Z,8.10
2019-06-07T03:27:32.250Z,15.80
2019-06-07T03:29:15.878Z,8.23
2019-06-07T03:31:47.402Z,10.73
2019-06-07T03:34:16.175Z,10.90
2019-06-07T03:36:45.705Z,9.07
2019-06-07T03:39:14.996Z,8.80
2019-06-07T03:42:04.785Z,9.17
2019-06-07T03:44:15.539Z,12.00
2019-06-07T03:46:44.817Z,9.77
2019-06-07T03:49:14.101Z,8.60
2019-06-07T03:51:43.710Z,11.60
2019-06-07T03:54:13.231Z,10.30
2019-06-07T03:56:42.589Z,8.27
2019-06-07T03:59:11.874Z,9.47
2019-06-07T04:01:41.411Z,12.97
2019-06-07T04:04:10.716Z,9.40
2019-06-07T04:06:42.382Z,9.00
2019-06-07T04:09:10.979Z,10.40
2019-06-07T04:11:40.916Z,11.37
2019-06-07T04:14:10.525Z,11.17
2019-06-07T04:16:44.167Z,12.43
2019-06-07T04:19:11.031Z,10.57
2019-06-07T04:21:43.014Z,10.20
2019-06-07T04:24:12.632Z,9.20
2019-06-07T04:26:43.739Z,10.40
2019-06-07T04:31:44.130Z,11.60
2019-06-07T04:34:13.690Z,11.50
2019-06-07T04:36:56.410Z,9.63
2019-06-07T04:39:14.871Z,10.87
2019-06-07T04:41:45.851Z,9.83
2019-06-07T04:44:16.945Z,9.50
2019-06-07T04:46:49.267Z,10.60
2019-06-07T04:49:20.363Z,10.30
2019-06-07T04:51:51.165Z,10.33
2019-06-07T04:54:20.456Z,11.03
2019-06-07T04:56:49.737Z,11.70
2019-06-07T05:00:00.995Z,12.50
2019-06-07T05:01:50.491Z,10.63
2019-06-07T05:04:20.091Z,11.57
2019-06-07T05:06:49.373Z,10.73
2019-06-07T05:09:18.658Z,11.37
2019-06-07T05:11:47.940Z,10.83
2019-06-07T05:14:17.463Z,10.77
2019-06-07T05:16:46.771Z,11.53
2019-06-07T05:19:16.291Z,11.00
2019-06-07T05:22:02.816Z,10.57
2019-06-07T05:24:16.945Z,11.23
2019-06-07T05:26:46.480Z,11.30
2019-06-07T05:29:15.763Z,11.53
2019-06-07T05:31:45.693Z,10.73
2019-06-07T05:34:15.123Z,11.70
2019-06-07T05:36:45.253Z,9.33
2019-06-07T05:39:14.875Z,10.27
2019-06-07T05:41:44.512Z,9.47
2019-06-07T05:44:15.190Z,11.07
2019-06-07T05:46:47.219Z,11.37
2019-06-07T05:49:15.597Z,11.87
2019-06-07T05:51:45.284Z,10.73
2019-06-07T05:54:14.695Z,10.33
2019-06-07T05:56:45.331Z,10.67
2019-06-07T05:59:14.810Z,7.80
2019-06-07T06:01:53.358Z,12.00
2019-06-07T06:04:15.174Z,8.50
2019-06-07T06:06:47.040Z,9.30
2019-06-07T06:09:15.737Z,8.13
2019-06-07T06:11:58.474Z,8.07
2019-06-07T06:14:16.222Z,11.53
2019-06-07T06:16:47.923Z,9.40
2019-06-07T06:19:16.723Z,9.20
2019-06-07T06:21:46.493Z,7.63
2019-06-07T06:24:17.093Z,8.77
2019-06-07T06:26:54.089Z,8.23
2019-06-07T06:29:17.574Z,8.63
2019-06-07T06:32:35.863Z,6.90
2019-06-07T06:34:17.830Z,7.27
2019-06-07T06:36:50.098Z,7.20
2019-06-07T06:39:18.154Z,6.43
2019-06-07T06:41:58.596Z,9.37
2019-06-07T06:44:18.439Z,9.13
2019-06-07T06:46:56.998Z,9.90
2019-06-07T06:49:18.869Z,5.80
2019-06-07T06:51:53.238Z,6.90
2019-06-07T06:54:39.316Z,6.60
2019-06-07T06:56:52.599Z,6.37
2019-06-07T06:59:37.940Z,6.50
2019-06-07T07:01:52.660Z,6.00
2019-06-07T07:04:22.710Z,7.00
2019-06-07T07:06:53.708Z,8.17
2019-06-07T07:09:24.085Z,5.63
2019-06-07T07:12:10.203Z,7.20
2019-06-07T07:14:24.815Z,5.80
2019-06-07T07:16:56.661Z,8.90
2019-06-07T07:19:25.548Z,6.17
2019-06-07T07:21:55.421Z,6.80
2019-06-07T07:24:25.854Z,5.83
2019-06-07T07:26:58.296Z,8.00
2019-06-07T07:29:26.128Z,6.60
2019-06-07T07:31:56.493Z,6.10
2019-06-07T07:34:36.097Z,7.87
2019-06-07T07:36:59.737Z,7.50
2019-06-07T07:39:28.071Z,10.23
2019-06-07T07:42:18.069Z,9.00
2019-06-07T07:44:28.559Z,7.30
2019-06-07T07:46:57.835Z,9.17
2019-06-07T07:49:27.118Z,7.73
2019-06-07T07:51:58.766Z,9.60
2019-06-07T07:54:27.387Z,8.43
2019-06-07T07:56:57.380Z,7.27
2019-06-07T07:59:41.823Z,7.37
2019-06-07T08:01:59.226Z,8.70
2019-06-07T08:05:12.132Z,8.50
2019-06-07T08:06:59.711Z,7.27
2019-06-07T08:09:29.269Z,8.57
2019-06-07T08:12:01.838Z,10.20
2019-06-07T08:14:30.000Z,6.73
2019-06-07T08:17:00.243Z,6.70
2019-06-07T08:19:29.793Z,7.60
2019-06-07T08:22:01.666Z,7.53
2019-06-07T08:24:30.105Z,5.30
2019-06-07T08:27:24.814Z,5.90
2019-06-07T08:29:44.307Z,6.17
2019-06-07T08:32:01.840Z,6.17
2019-06-07T08:34:31.369Z,5.30
2019-06-07T08:37:02.059Z,10.70
2019-06-07T08:39:31.574Z,6.00
2019-06-07T08:42:15.488Z,6.27
2019-06-07T08:44:32.082Z,8.17
2019-06-07T08:47:19.347Z,5.87
2019-06-07T08:49:33.560Z,5.40
2019-06-07T08:52:07.925Z,7.83
2019-06-07T08:54:34.309Z,5.73
2019-06-07T08:57:19.401Z,7.33
2019-06-07T08:59:34.814Z,5.27
2019-06-07T09:02:20.750Z,5.37
2019-06-07T09:04:35.237Z,5.23
2019-06-07T09:07:14.713Z,4.73
2019-06-07T09:09:35.775Z,5.90
2019-06-07T09:12:10.735Z,4.90
2019-06-07T09:14:56.485Z,5.23
2019-06-07T09:17:12.036Z,4.93
2019-06-07T09:19:38.783Z,6.27
2019-06-07T09:22:11.438Z,3.97
2019-06-07T09:24:39.279Z,9.27
2019-06-07T09:27:10.483Z,4.70
2019-06-07T09:29:40.071Z,4.60
2019-06-07T09:32:14.638Z,4.17
2019-06-07T09:34:40.741Z,5.57
2019-06-07T09:38:02.354Z,5.10
2019-06-07T09:39:41.393Z,5.67
2019-06-07T09:42:12.669Z,4.13
2019-06-07T09:44:42.211Z,3.90
2019-06-07T09:47:29.875Z,4.00
2019-06-07T09:49:42.465Z,3.10
2019-06-07T09:52:11.742Z,3.87
2019-06-07T09:55:06.240Z,3.10
2019-06-07T09:57:17.407Z,5.10
2019-06-07T09:59:42.977Z,7.47
2019-06-07T10:02:13.619Z,5.10
2019-06-07T10:04:43.468Z,4.50
2019-06-07T10:07:30.909Z,2.80
2019-06-07T10:12:15.028Z,4.43
2019-06-07T10:14:45.284Z,3.67
2019-06-07T10:17:14.790Z,5.37
2019-06-07T10:19:44.313Z,2.63
2019-06-07T10:22:14.594Z,5.67
2019-06-07T10:24:43.893Z,5.17
2019-06-07T10:27:13.303Z,4.27
2019-06-07T10:29:42.578Z,8.23
2019-06-07T10:32:11.911Z,3.27
2019-06-07T10:34:41.191Z,9.07
2019-06-07T10:37:14.990Z,3.20
2019-06-07T10:39:48.636Z,6.03
2019-06-07T10:42:12.686Z,3.10
2019-06-07T10:44:41.949Z,3.57
2019-06-07T10:47:12.291Z,4.80
2019-06-07T10:49:41.999Z,3.20
2019-06-07T10:52:11.713Z,3.20
2019-06-07T10:54:42.502Z,4.27
2019-06-07T10:57:14.578Z,4.40
2019-06-07T10:59:42.773Z,3.30
2019-06-07T11:02:13.941Z,6.10
2019-06-07T11:04:43.356Z,3.30
2019-06-07T11:07:14.355Z,3.63
2019-06-07T11:09:43.997Z,4.60
2019-06-07T11:12:15.128Z,7.10
2019-06-07T11:14:44.705Z,2.87
2019-06-07T11:17:15.514Z,3.83
2019-06-07T11:19:45.136Z,2.83
2019-06-07T11:22:14.418Z,3.13
2019-06-07T11:24:44.167Z,2.83
2019-06-07T11:27:16.064Z,2.43
2019-06-07T11:29:45.818Z,3.47
2019-06-07T11:32:15.113Z,2.97
2019-06-07T11:34:44.643Z,4.27
2019-06-07T11:37:15.940Z,7.70
2019-06-07T11:39:45.143Z,2.77
2019-06-07T11:42:14.653Z,4.47
2019-06-07T11:44:56.435Z,2.50
2019-06-07T11:47:14.910Z,2.60
2019-06-07T11:49:45.161Z,3.00
2019-06-07T11:52:15.822Z,2.70
2019-06-07T11:54:48.044Z,3.57
2019-06-07T11:57:17.342Z,3.13
2019-06-07T11:59:46.998Z,3.20
2019-06-07T12:02:17.910Z,5.20
2019-06-07T12:04:47.212Z,5.07
2019-06-07T12:07:17.653Z,3.33
2019-06-07T12:09:55.837Z,2.03
2019-06-07T12:12:20.414Z,3.10
2019-06-07T12:14:49.447Z,2.87
2019-06-07T12:17:19.596Z,2.03
2019-06-07T12:19:49.006Z,4.83
2019-06-07T12:22:18.283Z,2.70
2019-06-07T12:24:47.803Z,2.80
2019-06-07T12:27:17.084Z,2.77
2019-06-07T12:29:46.400Z,2.50
2019-06-07T12:32:17.427Z,2.80
2019-06-07T12:34:46.853Z,3.50
2019-06-07T12:37:19.332Z,2.60
2019-06-07T12:39:47.100Z,2.07
2019-06-07T12:42:16.669Z,3.57
2019-06-07T12:44:45.990Z,6.63
2019-06-07T12:47:15.267Z,2.40
2019-06-07T12:49:44.793Z,2.80
2019-06-07T12:52:17.423Z,2.00
2019-06-07T12:54:45.548Z,3.63
2019-06-07T12:57:16.237Z,3.77
2019-06-07T12:59:45.578Z,3.93
2019-06-07T13:02:16.229Z,6.03
2019-06-07T13:04:45.859Z,3.30
2019-06-07T13:07:15.820Z,3.33
2019-06-07T13:09:45.139Z,3.97
2019-06-07T13:12:15.515Z,4.63
2019-06-07T13:14:44.826Z,2.83
2019-06-07T13:17:14.352Z,2.37
2019-06-07T13:19:43.877Z,2.10
2019-06-07T13:22:13.471Z,3.23
2019-06-07T13:24:42.989Z,2.50
2019-06-07T13:27:12.346Z,4.33
2019-06-07T13:29:41.619Z,4.23
2019-06-07T13:32:10.960Z,2.40
2019-06-07T13:34:40.218Z,2.67
2019-06-07T13:37:09.504Z,6.03
2019-06-07T13:39:39.015Z,3.70
2019-06-07T13:42:08.531Z,2.97
2019-06-07T13:44:38.044Z,2.50
2019-06-07T13:47:07.564Z,4.07
2019-06-07T13:49:37.079Z,2.63
2019-06-07T13:52:06.596Z,2.23
2019-06-07T13:54:36.111Z,2.73
2019-06-07T13:57:05.682Z,3.30
2019-06-07T13:59:34.986Z,2.77
2019-06-07T14:02:04.449Z,3.67
2019-06-07T14:04:33.729Z,3.53
2019-06-07T14:07:03.000Z,4.47
2019-06-07T14:09:32.537Z,4.20
2019-06-07T14:12:01.897Z,2.67
2019-06-07T14:14:31.235Z,3.23
2019-06-07T14:17:00.524Z,3.20
2019-06-07T14:19:30.732Z,2.57
2019-06-07T14:22:00.324Z,2.40
2019-06-07T14:24:31.105Z,3.67
2019-06-07T14:27:06.592Z,2.67
2019-06-07T14:29:36.910Z,3.93
2019-06-07T14:32:07.234Z,3.03
2019-06-07T14:34:37.003Z,2.40
2019-06-07T14:37:06.781Z,2.63
2019-06-07T14:39:36.299Z,2.17
2019-06-07T14:42:09.761Z,2.93
2019-06-07T14:44:36.856Z,3.10
2019-06-07T14:47:06.154Z,2.37
2019-06-07T14:49:35.427Z,3.97
2019-06-07T14:52:05.004Z,2.77
2019-06-07T14:54:38.686Z,2.83
2019-06-07T14:57:05.649Z,4.43
2019-06-07T14:59:35.016Z,2.60
2019-06-07T15:02:04.614Z,2.30
2019-06-07T15:04:34.807Z,2.60
2019-06-07T15:07:04.169Z,3.17
2019-06-07T15:09:35.074Z,2.87
2019-06-07T15:12:04.714Z,3.23
2019-06-07T15:14:35.409Z,2.70
2019-06-07T15:17:05.073Z,4.03
2019-06-07T15:19:36.368Z,4.17
2019-06-07T15:22:05.564Z,2.90
2019-06-07T15:24:38.595Z,3.37
2019-06-07T15:27:05.823Z,3.17
2019-06-07T15:29:36.005Z,3.03
2019-06-07T15:32:05.363Z,2.83
2019-06-07T15:34:34.654Z,2.43
2019-06-07T15:37:04.917Z,3.47
2019-06-07T15:39:34.662Z,3.03
2019-06-07T15:42:04.543Z,3.00
2019-06-07T15:44:35.341Z,4.13
2019-06-07T15:47:05.150Z,4.47
2019-06-07T15:49:36.064Z,4.53
2019-06-07T15:52:05.424Z,4.20
2019-06-07T15:54:34.947Z,11.20
2019-06-07T15:57:04.535Z,7.40
2019-06-07T15:59:35.719Z,5.10
2019-06-07T16:02:04.981Z,7.40
2019-06-07T16:04:35.548Z,5.73
2019-06-07T16:07:04.923Z,6.27
2019-06-07T16:09:34.448Z,5.77
2019-06-07T16:12:03.737Z,5.80
2019-06-07T16:14:33.166Z,9.47
2019-06-07T16:17:02.483Z,5.80
2019-06-07T16:19:33.590Z,5.70
2019-06-07T16:22:03.035Z,6.00
2019-06-07T16:24:33.586Z,5.20
2019-06-07T16:27:02.967Z,5.30
2019-06-07T16:29:32.493Z,6.57
2019-06-07T16:32:01.787Z,6.97
2019-06-07T16:34:31.063Z,6.90
2019-06-07T16:37:00.619Z,7.90
2019-06-07T16:39:30.245Z,4.50
2019-06-07T16:41:59.831Z,7.93
2019-06-07T16:44:29.106Z,3.53
2019-06-07T16:46:58.619Z,2.80
2019-06-07T16:49:27.913Z,2.17
2019-06-07T16:51:57.201Z,4.40
2019-06-07T16:54:26.462Z,3.40
2019-06-07T16:56:55.759Z,1.87
2019-06-07T16:59:25.035Z,5.90
2019-06-07T17:01:54.339Z,3.17
2019-06-07T17:04:23.641Z,2.50
2019-06-07T17:06:53.150Z,4.43
2019-06-07T17:09:22.422Z,1.77
2019-06-07T17:11:51.710Z,1.30
2019-06-07T17:14:20.986Z,2.47
2019-06-07T17:16:50.415Z,2.97
2019-06-07T17:19:20.010Z,1.60
2019-06-07T17:21:49.610Z,1.97
2019-06-07T17:24:19.007Z,1.77
2019-06-07T17:26:49.604Z,1.00
2019-06-07T17:29:18.984Z,0.77
2019-06-07T17:31:48.532Z,3.30
2019-06-07T17:34:18.781Z,1.83
2019-06-07T17:36:48.762Z,1.43
2019-06-07T17:39:19.346Z,1.50
2019-06-07T17:42:00.045Z,5.10
2019-06-07T17:44:19.837Z,1.00
2019-06-07T17:46:49.902Z,2.90
2019-06-07T17:49:19.324Z,0.60
2019-06-07T17:51:50.014Z,1.13
2019-06-07T17:54:19.545Z,1.47
2019-06-07T17:56:50.417Z,4.30
2019-06-07T17:59:19.920Z,1.63
2019-06-07T18:02:11.951Z,1.20
2019-06-07T18:04:20.426Z,0.70
2019-06-07T18:06:51.488Z,0.60
2019-06-07T18:09:22.812Z,1.40
2019-06-07T18:11:52.382Z,1.20
2019-06-07T18:14:21.683Z,1.07
2019-06-07T18:16:50.970Z,0.50
2019-06-07T18:19:20.226Z,0.93
2019-06-07T18:21:51.199Z,2.20
2019-06-07T18:24:21.690Z,0.60
2019-06-07T18:26:53.032Z,1.00
2019-06-07T18:29:22.386Z,0.93
2019-06-07T18:31:52.794Z,1.03
2019-06-07T18:34:22.123Z,1.70
2019-06-07T18:36:51.398Z,1.10
2019-06-07T18:39:20.678Z,0.53
2019-06-07T18:41:51.795Z,1.07
2019-06-07T18:44:22.027Z,4.60
2019-06-07T18:46:52.265Z,0.80
2019-06-07T18:49:21.600Z,2.20
2019-06-07T18:52:08.607Z,0.90
2019-06-07T18:54:38.116Z,1.03
2019-06-07T18:57:07.467Z,1.00
2019-06-07T18:59:36.979Z,0.90
2019-06-07T19:02:06.265Z,1.50
2019-06-07T19:04:35.780Z,2.27
2019-06-07T19:07:05.065Z,1.00
2019-06-07T19:09:34.390Z,0.87
2019-06-07T19:12:03.913Z,0.87
2019-06-07T19:14:37.014Z,1.03
2019-06-07T19:17:04.490Z,0.50
2019-06-07T19:19:33.774Z,1.83
2019-06-07T19:22:03.047Z,1.63
2019-06-07T19:24:32.349Z,1.33
2019-06-07T19:27:01.631Z,2.07
2019-06-07T19:29:30.910Z,1.33
2019-06-07T19:32:01.250Z,0.97
2019-06-07T19:34:31.511Z,1.37
2019-06-07T19:37:02.084Z,1.30
2019-06-07T19:39:31.499Z,1.53
2019-06-07T19:42:00.783Z,0.53
2019-06-07T19:44:30.066Z,1.07
2019-06-07T19:47:00.611Z,2.40
2019-06-07T19:49:30.166Z,0.93
2019-06-07T19:51:59.462Z,1.40
2019-06-07T19:54:28.761Z,2.10
2019-06-07T19:56:59.421Z,1.00
2019-06-07T19:59:29.041Z,0.83
2019-06-07T20:01:58.325Z,2.93
2019-06-07T20:04:27.872Z,4.60
2019-06-07T20:06:58.227Z,1.03
2019-06-07T20:09:31.178Z,1.80
2019-06-07T20:12:00.677Z,1.10
2019-06-07T20:14:30.100Z,1.67
2019-06-07T20:16:59.599Z,1.03
2019-06-07T20:19:29.294Z,1.03
2019-06-07T20:21:58.843Z,3.53
2019-06-07T20:24:28.140Z,1.10
2019-06-07T20:26:58.243Z,2.93
2019-06-07T20:29:30.148Z,4.30
2019-06-07T20:31:58.819Z,1.37
2019-06-07T20:34:28.330Z,2.57
2019-06-07T20:36:57.976Z,1.10
2019-06-07T20:39:27.307Z,2.00
2019-06-07T20:41:57.194Z,0.97
2019-06-07T20:44:26.547Z,2.63
2019-06-07T20:46:55.848Z,1.93
2019-06-07T20:49:25.131Z,5.30
2019-06-07T20:51:54.415Z,1.10
2019-06-07T20:54:23.941Z,2.27
2019-06-07T20:56:53.218Z,4.70
2019-06-07T20:59:22.505Z,1.17
2019-06-07T21:01:52.539Z,1.43
2019-06-07T21:04:21.813Z,2.23
2019-06-07T21:06:51.095Z,1.70
2019-06-07T21:09:21.343Z,1.60
2019-06-07T21:11:50.661Z,1.80
2019-06-07T21:14:20.226Z,1.83
2019-06-07T21:16:49.512Z,4.00
2019-06-07T21:19:18.794Z,3.90
2019-06-07T21:21:48.086Z,1.87
2019-06-07T21:24:17.352Z,2.63
2019-06-07T21:26:46.656Z,1.53
2019-06-07T21:29:15.988Z,1.67
2019-06-07T21:31:45.506Z,2.00
2019-06-07T21:34:14.796Z,1.10
2019-06-07T21:36:44.067Z,2.03
2019-06-07T21:39:13.355Z,0.80
2019-06-07T21:41:42.643Z,1.07
2019-06-07T21:44:12.424Z,1.53
2019-06-07T21:46:41.800Z,3.30
2019-06-07T21:49:11.077Z,3.53
2019-06-07T21:51:41.975Z,3.47
2019-06-07T21:54:14.370Z,3.53
2019-06-07T21:56:42.492Z,3.50
2019-06-07T21:59:11.755Z,1.83
2019-06-07T22:01:41.122Z,2.50
2019-06-07T22:04:11.642Z,2.77
2019-06-07T22:06:41.076Z,3.63
2019-06-07T22:09:12.366Z,4.77
2019-06-07T22:11:41.800Z,4.27
2019-06-07T22:14:12.464Z,1.77
2019-06-07T22:16:41.828Z,1.37
2019-06-07T22:19:12.643Z,3.50
2019-06-07T22:21:42.022Z,2.27
2019-06-07T22:24:11.308Z,1.30
2019-06-07T22:26:40.590Z,3.83
2019-06-07T22:29:10.303Z,5.60
2019-06-07T22:31:39.640Z,4.07
2019-06-07T22:34:08.919Z,9.00
2019-06-07T22:36:38.211Z,1.80
2019-06-07T22:39:07.625Z,4.00
2019-06-07T22:41:36.948Z,1.57
2019-06-07T22:44:07.037Z,4.10
2019-06-07T22:46:37.842Z,2.07
2019-06-07T22:49:07.414Z,2.00
2019-06-07T22:51:36.699Z,2.10
2019-06-07T22:54:05.984Z,2.80
2019-06-07T22:56:39.559Z,2.30
2019-06-07T22:59:12.376Z,3.83
2019-06-07T23:01:40.046Z,2.00
2019-06-07T23:04:10.452Z,4.53
2019-06-07T23:06:39.741Z,3.00
2019-06-07T23:09:09.037Z,4.43
2019-06-07T23:11:38.543Z,2.90
2019-06-07T23:14:09.136Z,1.97
2019-06-07T23:16:54.322Z,1.87
2019-06-07T23:19:10.146Z,1.33
2019-06-07T23:21:39.413Z,1.50
2019-06-07T23:24:09.743Z,1.20
2019-06-07T23:26:39.226Z,2.97
2019-06-07T23:29:10.280Z,3.07
2019-06-07T23:31:39.586Z,6.50
2019-06-07T23:34:08.872Z,5.63
2019-06-07T23:36:38.152Z,3.87
2019-06-07T23:39:07.808Z,4.00
2019-06-07T23:41:37.314Z,1.60
2019-06-07T23:44:06.831Z,3.43
2019-06-07T23:46:36.098Z,3.80
2019-06-07T23:49:05.709Z,1.47
2019-06-07T23:51:34.993Z,1.60
2019-06-07T23:54:04.292Z,1.80
2019-06-07T23:56:33.653Z,2.37
2019-06-07T23:59:03.159Z,1.00
